createdAt,value
2022-11-14T00:03:50.312Z,101754.57
2022-11-14T00:07:35.291Z,101743.48
2022-11-14T00:11:19.130Z,101739.39
2022-11-14T00:15:03.061Z,101733.48
2022-11-14T00:18:47.326Z,101725.73
2022-11-14T00:22:31.509Z,101711.95
2022-11-14T00:26:15.027Z,101704.93
2022-11-14T00:29:59.281Z,101696.96
2022-11-14T00:33:43.427Z,101698.77
2022-11-14T00:37:28.290Z,101700.03
2022-11-14T00:41:11.987Z,101694.38
2022-11-14T00:44:55.992Z,101692.15
2022-11-14T00:48:39.915Z,101688.31
2022-11-14T00:52:24.534Z,101689.90
2022-11-14T00:56:08.681Z,101684.31
2022-11-14T00:59:55.647Z,101678.54
2022-11-14T01:03:39.884Z,101680.48
2022-11-14T01:07:23.613Z,101681.66
2022-11-14T01:11:12.812Z,101677.19
2022-11-14T01:14:57.120Z,101674.92
2022-11-14T01:18:41.138Z,101672.48
2022-11-14T01:22:24.834Z,101673.16
2022-11-14T01:26:10.243Z,101670.59
2022-11-14T01:29:54.686Z,101671.23
2022-11-14T01:33:39.151Z,101664.55
2022-11-14T01:37:23.192Z,101657.92
2022-11-14T01:41:07.839Z,101655.50
2022-11-14T01:44:53.303Z,101652.58
2022-11-14T01:48:39.842Z,101655.52
2022-11-14T01:52:25.934Z,101655.88
2022-11-14T01:56:12.805Z,101640.94
2022-11-14T02:00:00.317Z,101645.54
2022-11-14T02:03:45.722Z,101635.11
2022-11-14T02:07:32.254Z,101626.88
2022-11-14T02:11:16.072Z,101626.00
2022-11-14T02:15:00.426Z,101625.52
2022-11-14T02:18:44.270Z,101620.67
2022-11-14T02:22:28.300Z,101619.35
2022-11-14T02:26:12.734Z,101616.27
2022-11-14T02:30:03.823Z,101607.36
2022-11-14T02:33:48.075Z,101611.83
2022-11-14T02:37:32.004Z,101602.97
2022-11-14T02:41:16.386Z,101596.73
2022-11-14T02:45:00.225Z,101586.95
2022-11-14T02:48:44.052Z,101580.20
2022-11-14T02:52:28.045Z,101572.91
2022-11-14T02:56:12.286Z,101569.13
2022-11-14T02:59:56.738Z,101571.92
2022-11-14T03:03:41.106Z,101561.29
2022-11-14T03:07:24.994Z,101553.23
2022-11-14T03:11:10.371Z,101549.34
2022-11-14T03:14:54.595Z,101550.73
2022-11-14T03:18:39.880Z,101558.20
2022-11-14T03:22:23.825Z,101563.13
2022-11-14T03:26:09.695Z,101567.85
2022-11-14T03:29:53.487Z,101561.95
2022-11-14T03:33:37.508Z,101552.80
2022-11-14T03:37:21.352Z,101555.17
2022-11-14T03:41:05.041Z,101547.23
2022-11-14T03:44:48.985Z,101549.27
2022-11-14T03:48:33.670Z,101549.85
2022-11-14T03:52:17.558Z,101544.34
2022-11-14T03:56:01.680Z,101540.94
2022-11-14T03:59:45.732Z,101533.88
2022-11-14T04:03:29.926Z,101528.96
2022-11-14T04:07:14.295Z,101531.53
2022-11-14T04:10:58.563Z,101527.75
2022-11-14T04:14:42.975Z,101526.99
2022-11-14T04:18:27.655Z,101532.70
2022-11-14T04:22:11.706Z,101531.13
2022-11-14T04:25:56.093Z,101524.91
2022-11-14T04:29:40.174Z,101524.69
2022-11-14T04:33:23.888Z,101512.82
2022-11-14T04:37:08.157Z,101511.16
2022-11-14T04:40:53.026Z,101514.56
2022-11-14T04:44:36.828Z,101515.70
2022-11-14T04:48:21.226Z,101523.59
2022-11-14T04:52:05.453Z,101526.63
2022-11-14T04:55:49.711Z,101514.14
2022-11-14T04:59:33.931Z,101512.73
2022-11-14T05:03:17.826Z,101508.09
2022-11-14T05:07:01.758Z,101514.36
2022-11-14T05:10:46.761Z,101505.13
2022-11-14T05:14:31.769Z,101509.23
2022-11-14T05:18:15.527Z,101506.37
2022-11-14T05:21:59.623Z,101505.02
2022-11-14T05:25:43.603Z,101505.86
2022-11-14T05:29:27.268Z,101504.85
2022-11-14T05:33:11.213Z,101495.60
2022-11-14T05:36:55.043Z,101493.14
2022-11-14T05:40:39.676Z,101499.74
2022-11-14T05:44:23.553Z,101498.19
2022-11-14T05:48:07.720Z,101504.15
2022-11-14T05:51:51.401Z,101501.98
2022-11-14T05:55:35.341Z,101504.45
2022-11-14T05:59:19.000Z,101501.63
2022-11-14T06:03:02.772Z,101503.02
2022-11-14T06:06:46.463Z,101503.92
2022-11-14T06:10:29.959Z,101499.42
2022-11-14T06:14:14.197Z,101498.42
2022-11-14T06:17:58.923Z,101501.20
2022-11-14T06:21:42.703Z,101500.41
2022-11-14T06:25:26.489Z,101499.64
2022-11-14T06:29:10.966Z,101496.02
2022-11-14T06:32:59.345Z,101497.86
2022-11-14T06:36:43.161Z,101500.91
2022-11-14T06:40:27.031Z,101500.36
2022-11-14T06:44:10.991Z,101498.42
2022-11-14T06:47:59.028Z,101497.23
2022-11-14T06:51:43.083Z,101491.46
2022-11-14T06:55:26.736Z,101495.14
2022-11-14T06:59:10.242Z,101492.54
2022-11-14T07:02:54.095Z,101499.95
2022-11-14T07:06:37.911Z,101493.05
2022-11-14T07:10:21.693Z,101500.11
2022-11-14T07:14:06.787Z,101503.43
2022-11-14T07:17:50.788Z,101502.98
2022-11-14T07:21:35.137Z,101499.98
2022-11-14T07:25:19.027Z,101492.06
2022-11-14T07:29:03.109Z,101484.14
2022-11-14T07:32:47.080Z,101480.48
2022-11-14T07:36:30.851Z,101480.91
2022-11-14T07:40:14.548Z,101476.60
2022-11-14T07:43:58.259Z,101476.30
2022-11-14T07:47:42.006Z,101472.23
2022-11-14T07:51:25.607Z,101472.35
2022-11-14T07:55:10.465Z,101474.21
2022-11-14T07:58:54.349Z,101460.06
2022-11-14T08:02:38.043Z,101459.69
2022-11-14T08:06:21.743Z,101457.31
2022-11-14T08:10:05.825Z,101460.28
2022-11-14T08:13:50.135Z,101454.85
2022-11-14T08:17:34.013Z,101461.57
2022-11-14T08:21:17.663Z,101452.30
2022-11-14T08:25:01.340Z,101455.67
2022-11-14T08:28:45.266Z,101451.52
2022-11-14T08:32:28.823Z,101447.00
2022-11-14T08:36:12.988Z,101442.67
2022-11-14T08:39:57.194Z,101442.70
2022-11-14T08:43:41.130Z,101446.16
2022-11-14T08:47:24.914Z,101449.20
2022-11-14T08:51:08.978Z,101459.36
2022-11-14T08:54:52.981Z,101450.94
2022-11-14T08:58:36.611Z,101446.05
2022-11-14T09:02:20.302Z,101429.80
2022-11-14T09:06:04.671Z,101435.42
2022-11-14T09:09:48.677Z,101436.98
2022-11-14T09:13:34.717Z,101430.08
2022-11-14T09:17:18.373Z,101423.96
2022-11-14T09:21:03.035Z,101428.80
2022-11-14T09:24:49.469Z,101418.17
2022-11-14T09:28:32.993Z,101411.81
2022-11-14T09:32:17.010Z,101402.16
2022-11-14T09:36:01.195Z,101396.98
2022-11-14T09:39:45.097Z,101395.80
2022-11-14T09:43:39.161Z,101397.59
2022-11-14T09:47:24.579Z,101397.33
2022-11-14T09:51:10.613Z,101386.95
2022-11-14T09:54:56.822Z,101381.36
2022-11-14T09:58:41.830Z,101382.88
2022-11-14T10:02:37.940Z,101384.79
2022-11-14T10:06:27.535Z,101376.66
2022-11-14T10:10:18.624Z,101363.56
2022-11-14T10:14:20.645Z,101357.95
2022-11-14T10:18:13.409Z,101359.48
2022-11-14T10:22:05.485Z,101357.45
2022-11-14T10:25:54.637Z,101355.23
2022-11-14T10:29:53.646Z,101344.83
2022-11-14T10:33:43.257Z,101338.69
2022-11-14T10:37:30.661Z,101343.48
2022-11-14T10:41:34.727Z,101329.75
2022-11-14T10:45:24.346Z,101332.15
2022-11-14T10:49:16.652Z,101336.20
2022-11-14T10:53:02.925Z,101332.92
2022-11-14T10:56:49.952Z,101339.30
2022-11-14T11:00:33.841Z,101340.84
2022-11-14T11:04:23.150Z,101340.79
2022-11-14T11:08:42.646Z,101330.89
2022-11-14T11:12:42.618Z,101325.48
2022-11-14T11:16:27.321Z,101322.51
2022-11-14T11:20:30.663Z,101319.88
2022-11-14T11:24:31.221Z,101311.02
2022-11-14T11:28:15.999Z,101305.44
2022-11-14T11:32:00.471Z,101299.36
2022-11-14T11:35:44.797Z,101293.35
2022-11-14T11:39:30.772Z,101288.67
2022-11-14T11:43:38.769Z,101284.13
2022-11-14T11:47:21.139Z,101280.99
2022-11-14T11:51:05.755Z,101275.77
2022-11-14T11:54:55.238Z,101273.08
2022-11-14T11:58:42.246Z,101269.62
2022-11-14T12:02:27.209Z,101265.82
2022-11-14T12:06:15.355Z,101264.21
2022-11-14T12:10:15.777Z,101265.37
2022-11-14T12:14:09.276Z,101262.58
2022-11-14T12:18:04.752Z,101256.84
2022-11-14T12:21:59.056Z,101246.94
2022-11-14T12:25:47.684Z,101239.62
2022-11-14T12:29:40.835Z,101238.64
2022-11-14T12:33:26.477Z,101241.30
2022-11-14T12:37:16.296Z,101238.05
2022-11-14T12:41:01.345Z,101230.29
2022-11-14T12:44:44.953Z,101225.77
2022-11-14T12:48:32.203Z,101219.96
2022-11-14T12:52:29.684Z,101219.55
2022-11-14T12:56:40.322Z,101218.68
2022-11-14T13:00:24.054Z,101217.05
2022-11-14T13:04:17.140Z,101209.70
2022-11-14T13:08:09.549Z,101204.01
2022-11-14T13:12:11.380Z,101198.71
2022-11-14T13:16:13.454Z,101196.70
2022-11-14T13:20:15.917Z,101194.49
2022-11-14T13:23:59.588Z,101194.52
2022-11-14T13:28:06.636Z,101188.98
2022-11-14T13:31:48.848Z,101190.70
2022-11-14T13:35:38.185Z,101187.77
2022-11-14T13:39:24.570Z,101183.23
2022-11-14T13:43:12.849Z,101178.19
2022-11-14T13:47:04.179Z,101178.18
2022-11-14T13:50:50.864Z,101170.84
2022-11-14T13:54:34.963Z,101173.23
2022-11-14T13:58:25.906Z,101160.08
2022-11-14T14:02:36.131Z,101157.72
2022-11-14T14:06:32.836Z,101154.30
2022-11-14T14:10:26.681Z,101146.53
2022-11-14T14:14:16.652Z,101147.16
2022-11-14T14:18:07.148Z,101144.22
2022-11-14T14:21:55.483Z,101135.30
2022-11-14T14:25:42.710Z,101138.80
2022-11-14T14:29:31.084Z,101131.27
2022-11-14T14:33:15.951Z,101124.96
2022-11-14T14:36:59.708Z,101125.09
2022-11-14T14:40:43.721Z,101122.61
2022-11-14T14:44:29.865Z,101117.49
2022-11-14T14:48:14.446Z,101117.77
2022-11-14T14:51:58.861Z,101117.85
2022-11-14T14:55:43.557Z,101113.31
2022-11-14T14:59:27.899Z,101111.03
2022-11-14T15:03:12.108Z,101115.67
2022-11-14T15:06:57.443Z,101111.24
2022-11-14T15:10:42.311Z,101110.73
2022-11-14T15:14:27.460Z,101105.91
2022-11-14T15:18:24.360Z,101100.89
2022-11-14T15:22:23.118Z,101099.89
2022-11-14T15:26:12.398Z,101096.92
2022-11-14T15:29:59.233Z,101090.91
2022-11-14T15:33:43.137Z,101086.81
2022-11-14T15:37:28.172Z,101085.08
2022-11-14T15:41:18.912Z,101090.00
2022-11-14T15:45:21.643Z,101084.68
2022-11-14T15:49:10.008Z,101089.58
2022-11-14T15:52:56.200Z,101088.45
2022-11-14T15:56:39.766Z,101085.91
2022-11-14T16:00:24.204Z,101080.23
2022-11-14T16:04:09.992Z,101076.86
2022-11-14T16:07:53.678Z,101075.23
2022-11-14T16:11:37.371Z,101072.91
2022-11-14T16:15:22.347Z,101066.95
2022-11-14T16:19:06.344Z,101068.98
2022-11-14T16:22:53.104Z,101065.77
2022-11-14T16:26:38.243Z,101066.23
2022-11-14T16:30:23.662Z,101062.91
2022-11-14T16:34:07.810Z,101060.33
2022-11-14T16:37:51.670Z,101060.35
2022-11-14T16:41:35.925Z,101060.73
2022-11-14T16:45:20.681Z,101053.95
2022-11-14T16:49:04.595Z,101053.66
2022-11-14T16:52:48.851Z,101057.35
2022-11-14T16:56:32.494Z,101062.64
2022-11-14T17:00:16.410Z,101064.90
2022-11-14T17:04:01.125Z,101064.95
2022-11-14T17:07:45.267Z,101067.74
2022-11-14T17:11:29.350Z,101066.50
2022-11-14T17:15:13.077Z,101063.34
2022-11-14T17:18:57.163Z,101058.58
2022-11-14T17:22:40.936Z,101053.33
2022-11-14T17:26:25.180Z,101054.13
2022-11-14T17:30:12.212Z,101045.60
2022-11-14T17:33:57.431Z,101048.30
2022-11-14T17:37:41.191Z,101045.83
2022-11-14T17:41:25.182Z,101042.83
2022-11-14T17:45:09.980Z,101037.92
2022-11-14T17:48:53.697Z,101040.33
2022-11-14T17:52:37.350Z,101037.15
2022-11-14T17:56:22.225Z,101034.00
2022-11-14T18:00:07.305Z,101028.91
2022-11-14T18:03:51.733Z,101026.27
2022-11-14T18:07:35.480Z,101023.34
2022-11-14T18:11:20.604Z,101027.17
2022-11-14T18:15:05.124Z,101023.83
2022-11-14T18:18:49.212Z,101027.80
2022-11-14T18:22:33.340Z,101025.69
2022-11-14T18:26:18.183Z,101031.36
2022-11-14T18:30:19.725Z,101029.76
2022-11-14T18:34:05.920Z,101025.84
2022-11-14T18:37:50.069Z,101021.58
2022-11-14T18:41:34.294Z,101023.46
2022-11-14T18:45:18.417Z,101022.06
2022-11-14T18:49:02.118Z,101016.15
2022-11-14T18:52:45.869Z,101015.27
2022-11-14T18:56:29.913Z,101022.00
2022-11-14T19:00:15.267Z,101014.20
2022-11-14T19:04:00.326Z,101008.24
2022-11-14T19:07:44.506Z,101006.14
2022-11-14T19:11:44.733Z,101007.16
2022-11-14T19:15:28.854Z,101003.32
2022-11-14T19:19:12.616Z,101001.05
2022-11-14T19:22:56.392Z,100998.83
2022-11-14T19:26:40.533Z,101002.48
2022-11-14T19:30:24.482Z,101007.36
2022-11-14T19:34:08.030Z,101000.95
2022-11-14T19:37:52.164Z,100994.77
2022-11-14T19:41:35.695Z,100996.88
2022-11-14T19:45:19.521Z,100993.30
2022-11-14T20:46:00.174Z,100955.36
2022-11-14T20:49:46.982Z,100950.63
2022-11-14T20:53:34.004Z,100945.95
2022-11-14T20:57:19.599Z,100942.48
2022-11-14T21:01:05.700Z,100942.48
2022-11-14T21:04:51.598Z,100939.56
2022-11-14T21:08:38.140Z,100941.06
2022-11-14T21:12:23.691Z,100935.37
2022-11-14T21:16:12.338Z,100933.65
2022-11-14T21:19:58.474Z,100933.27
2022-11-14T21:23:45.532Z,100934.34
2022-11-14T21:27:30.990Z,100936.91
2022-11-14T21:31:20.846Z,100936.66
2022-11-14T21:35:09.644Z,100937.45
2022-11-14T21:38:56.144Z,100935.17
2022-11-14T21:42:42.074Z,100935.62
2022-11-14T21:46:27.947Z,100934.96
2022-11-14T21:50:13.370Z,100925.44
2022-11-14T21:53:59.431Z,100926.60
2022-11-14T21:57:44.865Z,100920.41
2022-11-14T22:01:44.135Z,100924.73
2022-11-14T22:05:29.929Z,100919.70
2022-11-14T22:09:15.358Z,100914.95
2022-11-14T22:13:01.409Z,100917.80
2022-11-14T22:16:47.184Z,100913.23
2022-11-14T22:20:32.363Z,100906.60
2022-11-14T22:24:17.549Z,100903.55
2022-11-14T22:28:02.762Z,100901.03
2022-11-14T22:31:48.342Z,100902.66
2022-11-14T22:35:37.050Z,100897.87
2022-11-14T22:39:22.232Z,100897.55
2022-11-14T22:43:07.621Z,100898.93
2022-11-14T22:46:53.036Z,100894.04
2022-11-14T22:50:38.526Z,100897.36
2022-11-14T22:54:23.643Z,100905.34
2022-11-14T22:58:08.936Z,100900.23
2022-11-14T23:01:55.978Z,100897.14
2022-11-14T23:05:41.719Z,100893.44
2022-11-14T23:09:27.230Z,100890.15
2022-11-14T23:13:12.983Z,100885.57
2022-11-14T23:16:58.851Z,100880.42
2022-11-14T23:20:44.076Z,100878.30
2022-11-14T23:24:29.172Z,100872.92
2022-11-14T23:28:14.430Z,100870.34
2022-11-14T23:32:00.199Z,100860.98
2022-11-14T23:35:46.070Z,100851.02
2022-11-14T23:39:31.662Z,100847.30
2022-11-14T23:43:16.734Z,100839.58
2022-11-14T23:47:02.142Z,100845.31
2022-11-14T23:50:50.158Z,100839.34
2022-11-14T23:54:35.305Z,100840.30
2022-11-14T23:58:21.126Z,100838.35
